McPherson, Kansas
Current Conditions -  °F | °C
As of 3:52 AM on Monday 26 Jan 2015 (Local Time) from KHUT Reporting Station
Clear Clear  
Wind Chill: 23°   Ceiling: Unl
Heat Index: 29°   Visibility: 10mi
Dew Point: 24°   Wind: 6mph
Humidity: 82%   Direction: 200°SSW
Pressure: 30.1"   Gusts: NA
Location:  38.37°N, 97.67°W
Report Text: KHUT 260952Z AUTO 20005KT 10SM CLR M02/M04 A3010 RMK AO2 SLP193 T10171044
Loading
Personal Weather Stations






























Interactive Weather Map New forecast layout! Learn more

10-Day Weather Forecast

Advertisements
Track Severe Weather on mobile